Time;durP1;ratioP1;P1;durP2;ratioP2;P2;SDS_P1;SDS_P2;PMS_P1;PMS_P2;Temp;Humidity;BMP_temperature;BMP_pressure;BME280_temperature;BME280_humidity;BME280_pressure;Samples;Min_cycle;Max_cycle;Signal;HPM_P1;HPM_P2
2020/12/07 00:02:19;;;;;;;26.23;10.20;;;6.00;91.50;;;;;;5009357;28;20045;-56
2020/12/07 00:04:44;;;;;;;20.02;9.80;;;6.00;91.50;;;;;;5004903;28;20030;-56
2020/12/07 00:07:10;;;;;;;23.80;9.10;;;6.00;91.60;;;;;;5014257;28;20033;-58
2020/12/07 00:09:35;;;;;;;26.85;9.57;;;5.90;91.60;;;;;;5009358;28;20322;-57
2020/12/07 00:12:01;;;;;;;30.17;9.52;;;5.90;91.60;;;;;;5013990;28;20508;-56
2020/12/07 00:14:26;;;;;;;23.40;8.85;;;5.90;91.60;;;;;;5007805;28;20105;-56
2020/12/07 00:16:52;;;;;;;19.88;9.35;;;5.90;91.60;;;;;;4999444;28;20042;-57
2020/12/07 00:19:17;;;;;;;23.42;9.48;;;5.90;91.60;;;;;;5008570;28;20030;-56
2020/12/07 00:21:43;;;;;;;26.65;10.55;;;5.90;91.60;;;;;;5009316;28;20030;-58
2020/12/07 00:24:09;;;;;;;18.33;8.65;;;5.90;91.60;;;;;;4991601;28;20437;-57
2020/12/07 00:26:35;;;;;;;23.98;9.93;;;5.90;91.60;;;;;;4994278;28;20054;-57
2020/12/07 00:29:00;;;;;;;24.23;9.45;;;5.80;91.60;;;;;;5008441;28;20423;-57
2020/12/07 00:31:26;;;;;;;20.05;8.75;;;5.80;91.60;;;;;;5006736;28;20024;-57
2020/12/07 00:33:57;;;;;;;21.08;8.82;;;5.80;91.60;;;;;;5013675;28;20084;-56
2020/12/07 00:36:24;;;;;;;21.17;8.88;;;5.90;91.60;;;;;;5004712;28;20068;-57
2020/12/07 00:38:49;;;;;;;21.83;8.88;;;5.80;91.60;;;;;;5009558;28;20400;-57
2020/12/07 00:41:19;;;;;;;16.40;8.50;;;5.80;91.60;;;;;;5008395;28;20025;-56
2020/12/07 00:43:44;;;;;;;19.02;8.32;;;5.80;91.70;;;;;;5007614;28;20264;-57
2020/12/07 00:46:10;;;;;;;20.38;8.50;;;5.80;91.60;;;;;;5009856;28;20667;-56
2020/12/07 00:48:35;;;;;;;17.05;8.40;;;5.80;91.70;;;;;;5009432;28;20036;-57
2020/12/07 00:51:01;;;;;;;15.63;7.70;;;5.80;91.60;;;;;;5008523;28;20039;-56
2020/12/07 00:53:26;;;;;;;24.92;9.02;;;5.80;91.60;;;;;;4990063;28;20037;-57
2020/12/07 00:55:52;;;;;;;18.30;8.23;;;5.80;91.60;;;;;;5008569;28;20556;-56
2020/12/07 00:58:17;;;;;;;18.75;7.93;;;5.80;91.70;;;;;;5011587;28;20068;-57
2020/12/07 01:00:43;;;;;;;23.13;8.43;;;5.80;91.70;;;;;;5011081;28;20032;-55
2020/12/07 01:03:08;;;;;;;14.85;7.35;;;5.80;91.70;;;;;;5010615;28;20049;-57
2020/12/07 01:05:34;;;;;;;21.08;8.77;;;5.80;91.70;;;;;;5006288;28;20427;-55
2020/12/07 01:07:59;;;;;;;22.27;8.48;;;5.80;91.80;;;;;;5009543;28;20037;-57
2020/12/07 01:10:25;;;;;;;16.67;7.65;;;5.80;91.80;;;;;;5022904;28;20118;-56
2020/12/07 01:12:50;;;;;;;20.48;8.48;;;5.70;91.80;;;;;;5008543;28;20076;-56
2020/12/07 01:15:16;;;;;;;22.90;8.45;;;5.70;91.80;;;;;;5021667;28;20116;-57
2020/12/07 01:17:41;;;;;;;13.10;7.30;;;5.70;91.80;;;;;;5027129;28;20029;-56
2020/12/07 01:20:07;;;;;;;19.48;8.25;;;5.70;91.80;;;;;;4998824;28;20466;-56
2020/12/07 01:22:32;;;;;;;19.23;7.78;;;5.70;91.80;;;;;;5005369;28;20161;-56
2020/12/07 01:24:58;;;;;;;19.63;8.40;;;5.70;91.80;;;;;;4998789;28;20084;-56
2020/12/07 01:27:24;;;;;;;18.30;7.93;;;5.70;91.80;;;;;;5006380;28;20463;-56
2020/12/07 01:29:49;;;;;;;18.92;7.85;;;5.70;91.80;;;;;;5003441;28;20038;-57
2020/12/07 01:32:15;;;;;;;17.48;7.15;;;5.70;91.80;;;;;;5006846;28;20079;-58
2020/12/07 01:34:40;;;;;;;12.05;6.75;;;5.80;91.90;;;;;;4997897;28;20050;-57
2020/12/07 01:37:06;;;;;;;19.40;8.35;;;5.70;91.90;;;;;;5013894;28;20041;-58
2020/12/07 01:39:31;;;;;;;14.35;7.30;;;5.70;91.90;;;;;;5007036;28;20284;-56
2020/12/07 01:41:57;;;;;;;13.27;6.88;;;5.70;91.90;;;;;;5015316;28;20021;-58
2020/12/07 01:44:22;;;;;;;13.80;7.60;;;5.70;91.90;;;;;;5005053;28;20470;-56
2020/12/07 01:46:48;;;;;;;15.93;6.95;;;5.70;91.90;;;;;;5005850;28;20045;-56
2020/12/07 01:49:13;;;;;;;15.63;6.85;;;5.70;91.90;;;;;;4972513;28;20030;-57
2020/12/07 01:51:39;;;;;;;17.50;7.35;;;5.70;92.00;;;;;;5007259;28;20038;-57
2020/12/07 01:54:04;;;;;;;9.50;6.28;;;5.70;91.90;;;;;;5006284;28;20030;-56
2020/12/07 01:56:30;;;;;;;20.45;7.30;;;5.70;91.90;;;;;;5002651;28;20074;-56
2020/12/07 01:58:56;;;;;;;11.18;6.45;;;5.70;92.20;;;;;;5004696;28;20592;-56
2020/12/07 02:01:22;;;;;;;15.85;6.82;;;5.70;92.00;;;;;;5001180;28;20045;-57
2020/12/07 02:03:47;;;;;;;12.65;6.50;;;5.70;92.00;;;;;;5007107;28;20827;-55
2020/12/07 02:06:13;;;;;;;21.33;7.78;;;5.70;92.00;;;;;;5020741;28;20030;-56
2020/12/07 02:08:38;;;;;;;14.15;6.13;;;5.70;92.00;;;;;;5009063;28;20176;-58
2020/12/07 02:11:04;;;;;;;16.92;6.47;;;5.70;92.10;;;;;;5004956;28;20096;-57
2020/12/07 02:13:29;;;;;;;11.27;6.45;;;5.70;92.10;;;;;;5005163;28;20242;-56
2020/12/07 02:15:55;;;;;;;15.02;7.10;;;5.70;92.10;;;;;;5000672;28;20453;-58
2020/12/07 02:18:20;;;;;;;16.50;7.22;;;5.70;92.10;;;;;;5006171;28;20212;-58
2020/12/07 02:20:47;;;;;;;12.63;6.22;;;5.70;92.10;;;;;;5005352;28;20030;-56
2020/12/07 02:23:13;;;;;;;12.38;6.18;;;5.70;92.10;;;;;;5007302;28;20029;-56
2020/12/07 02:25:38;;;;;;;15.95;6.22;;;5.70;92.10;;;;;;5006934;28;20038;-56
2020/12/07 02:28:04;;;;;;;11.23;5.97;;;5.70;92.10;;;;;;5010023;28;20186;-57
2020/12/07 02:30:29;;;;;;;14.95;6.00;;;5.70;92.20;;;;;;5012436;28;20065;-58
2020/12/07 02:32:55;;;;;;;12.25;6.43;;;5.70;92.20;;;;;;5010587;28;20034;-56
2020/12/07 02:35:20;;;;;;;12.63;6.47;;;5.70;92.10;;;;;;5009905;28;20509;-56
2020/12/07 02:37:46;;;;;;;14.60;6.10;;;5.70;92.10;;;;;;5008875;28;20490;-56
2020/12/07 02:40:12;;;;;;;17.00;6.65;;;5.70;92.20;;;;;;5009826;28;20417;-56
2020/12/07 02:42:38;;;;;;;13.82;6.00;;;5.60;92.10;;;;;;5010576;28;20316;-56
2020/12/07 02:45:05;;;;;;;15.43;6.10;;;5.60;92.20;;;;;;5010278;28;20509;-58
2020/12/07 02:47:32;;;;;;;13.95;6.30;;;5.60;92.20;;;;;;4992677;28;20026;-56
2020/12/07 02:49:57;;;;;;;10.00;5.57;;;5.60;92.20;;;;;;4993922;28;20069;-58
2020/12/07 02:52:24;;;;;;;9.73;5.20;;;5.60;92.20;;;;;;5008258;28;20128;-58
2020/12/07 02:54:54;;;;;;;11.63;5.43;;;5.60;92.20;;;;;;5024821;28;20485;-57
2020/12/07 02:57:20;;;;;;;10.35;5.57;;;5.60;92.20;;;;;;5022848;28;20467;-57
2020/12/07 02:59:46;;;;;;;13.15;5.75;;;5.60;92.20;;;;;;5009248;28;20157;-58
2020/12/07 03:02:11;;;;;;;9.20;4.90;;;5.60;92.30;;;;;;5010807;28;20482;-56
2020/12/07 03:04:37;;;;;;;9.75;5.47;;;5.60;92.30;;;;;;5003767;28;20037;-58
2020/12/07 03:07:02;;;;;;;11.88;5.70;;;5.60;92.30;;;;;;5008760;28;20037;-57
2020/12/07 03:09:28;;;;;;;10.35;6.20;;;5.60;92.30;;;;;;5009870;28;20029;-57
2020/12/07 03:11:53;;;;;;;12.38;5.28;;;5.60;92.30;;;;;;5011033;28;20026;-56
2020/12/07 03:14:19;;;;;;;12.45;5.38;;;5.60;92.40;;;;;;4999480;28;20049;-58
2020/12/07 03:16:44;;;;;;;15.25;5.68;;;5.60;92.40;;;;;;5009766;28;20032;-56
2020/12/07 03:19:11;;;;;;;11.73;5.30;;;5.60;92.40;;;;;;5007422;28;20152;-58
2020/12/07 03:21:37;;;;;;;10.43;5.13;;;5.60;92.40;;;;;;5001841;28;20116;-58
2020/12/07 03:24:05;;;;;;;9.30;5.70;;;5.60;92.40;;;;;;4993306;28;20152;-56
2020/12/07 03:26:32;;;;;;;11.40;5.63;;;5.60;92.40;;;;;;5011075;28;20064;-58
2020/12/07 03:28:58;;;;;;;11.02;5.75;;;5.60;92.40;;;;;;5010120;28;20018;-56
2020/12/07 03:31:23;;;;;;;10.63;4.85;;;5.60;92.40;;;;;;5008883;28;20046;-57
2020/12/07 03:33:49;;;;;;;7.43;4.80;;;5.60;92.40;;;;;;5024414;28;20026;-59
2020/12/07 03:36:14;;;;;;;7.57;4.90;;;5.60;92.40;;;;;;5008500;28;20521;-58
2020/12/07 03:38:40;;;;;;;11.15;5.70;;;5.60;92.40;;;;;;4992269;28;20648;-56
2020/12/07 03:41:05;;;;;;;7.90;4.22;;;5.60;92.50;;;;;;4989350;28;20122;-55
2020/12/07 03:43:31;;;;;;;10.93;4.88;;;5.60;92.50;;;;;;5004001;28;20042;-58
2020/12/07 03:45:56;;;;;;;9.63;4.60;;;5.60;92.50;;;;;;5004381;28;20042;-56
2020/12/07 03:48:22;;;;;;;12.30;5.10;;;5.60;92.50;;;;;;5016221;28;20025;-57
2020/12/07 03:50:47;;;;;;;8.75;5.10;;;5.60;92.40;;;;;;5008056;28;20055;-57
2020/12/07 03:53:13;;;;;;;11.35;5.25;;;5.60;92.40;;;;;;5009427;28;20390;-58
2020/12/07 03:55:38;;;;;;;13.20;5.38;;;5.60;92.50;;;;;;5012597;28;20041;-57
2020/12/07 03:58:04;;;;;;;10.60;4.60;;;5.60;92.50;;;;;;5005003;28;20054;-57
2020/12/07 04:00:29;;;;;;;11.38;4.95;;;5.50;92.50;;;;;;5010581;28;20034;-56
2020/12/07 04:02:55;;;;;;;8.52;4.63;;;5.50;92.50;;;;;;5011229;28;20103;-57
2020/12/07 04:05:31;;;;;;;8.23;4.95;;;5.60;92.50;;;;;;5006385;28;20120;-56
2020/12/07 04:07:57;;;;;;;8.00;4.60;;;5.60;92.60;;;;;;5005406;28;20453;-58
2020/12/07 04:10:22;;;;;;;7.93;5.10;;;5.60;92.50;;;;;;4990110;28;20068;-57
2020/12/07 04:12:48;;;;;;;12.20;5.53;;;5.50;92.50;;;;;;5010591;28;20496;-58
2020/12/07 04:15:13;;;;;;;8.13;4.85;;;5.50;92.60;;;;;;5010646;28;20465;-56
2020/12/07 04:17:39;;;;;;;6.20;4.22;;;5.50;92.60;;;;;;5009172;28;20477;-58
2020/12/07 04:20:04;;;;;;;8.13;5.07;;;5.50;92.60;;;;;;5009575;28;20034;-56
2020/12/07 04:22:30;;;;;;;8.35;4.60;;;5.50;92.60;;;;;;5007007;28;20029;-59
2020/12/07 04:24:55;;;;;;;10.60;4.95;;;5.60;92.60;;;;;;5009017;28;20037;-57
2020/12/07 04:27:21;;;;;;;12.68;4.93;;;5.50;92.60;;;;;;5007771;28;20033;-58
2020/12/07 04:29:46;;;;;;;11.23;4.82;;;5.50;92.60;;;;;;5010775;28;20025;-56
2020/12/07 04:32:12;;;;;;;10.68;4.97;;;5.50;92.60;;;;;;5006640;28;20041;-57
2020/12/07 04:34:37;;;;;;;9.23;5.05;;;5.50;92.70;;;;;;5005595;28;20093;-55
2020/12/07 04:37:03;;;;;;;7.20;3.90;;;5.50;92.70;;;;;;5007672;28;20045;-57
2020/12/07 04:39:28;;;;;;;7.22;4.60;;;5.50;92.80;;;;;;5010205;28;20493;-56
2020/12/07 04:41:55;;;;;;;13.18;4.80;;;5.50;92.80;;;;;;5011008;28;20025;-56
2020/12/07 04:44:20;;;;;;;9.93;4.97;;;5.50;92.80;;;;;;4989836;28;20030;-57
2020/12/07 04:46:46;;;;;;;7.80;4.88;;;5.50;92.80;;;;;;5006795;28;20038;-58
2020/12/07 04:49:13;;;;;;;6.32;4.60;;;5.50;92.80;;;;;;4987598;28;20029;-58
2020/12/07 04:51:39;;;;;;;8.35;4.72;;;5.50;92.80;;;;;;5020493;28;20041;-57
2020/12/07 04:54:04;;;;;;;10.63;5.00;;;5.50;92.80;;;;;;4977610;28;20030;-57
2020/12/07 04:56:30;;;;;;;10.30;5.03;;;5.50;92.80;;;;;;5014384;28;20066;-57
2020/12/07 04:58:56;;;;;;;9.13;4.28;;;5.50;92.80;;;;;;5023500;28;20529;-58
2020/12/07 05:01:21;;;;;;;6.85;4.60;;;5.50;92.80;;;;;;4989750;28;20038;-58
2020/12/07 05:03:47;;;;;;;8.07;4.47;;;5.50;92.90;;;;;;5021573;28;20042;-56
2020/12/07 05:06:13;;;;;;;7.45;4.75;;;5.60;92.80;;;;;;5008084;28;20026;-58
2020/12/07 05:08:39;;;;;;;9.00;4.18;;;5.50;92.80;;;;;;4990590;28;20040;-57
2020/12/07 05:11:04;;;;;;;6.95;4.68;;;5.50;92.90;;;;;;5006769;28;20035;-56
2020/12/07 05:13:39;;;;;;;8.48;4.75;;;5.50;92.90;;;;;;5006648;28;20036;-56
2020/12/07 05:16:05;;;;;;;7.82;4.97;;;5.50;92.80;;;;;;5005427;28;20053;-57
2020/12/07 05:18:34;;;;;;;7.80;4.72;;;5.50;92.80;;;;;;4989798;28;20029;-57
2020/12/07 05:21:00;;;;;;;7.45;4.50;;;5.50;92.80;;;;;;4991142;28;20061;-57
2020/12/07 05:23:26;;;;;;;6.53;4.20;;;5.50;92.70;;;;;;4972476;28;20507;-57
2020/12/07 05:25:51;;;;;;;7.30;4.75;;;5.50;92.70;;;;;;5007818;28;20021;-56
2020/12/07 05:28:23;;;;;;;7.25;4.75;;;5.50;92.70;;;;;;4992225;28;20151;-58
2020/12/07 05:30:50;;;;;;;5.47;4.55;;;5.50;92.70;;;;;;5005344;28;20057;-57
2020/12/07 05:33:17;;;;;;;6.97;4.18;;;5.50;92.70;;;;;;5008691;28;20075;-58
2020/12/07 05:35:49;;;;;;;9.73;5.13;;;5.50;92.70;;;;;;4989927;28;20498;-57
2020/12/07 05:38:14;;;;;;;6.28;4.60;;;5.50;92.70;;;;;;5006734;28;20117;-57
2020/12/07 05:40:40;;;;;;;6.97;4.88;;;5.60;92.70;;;;;;5021751;28;20148;-58
2020/12/07 05:43:05;;;;;;;6.22;4.57;;;5.50;92.70;;;;;;5004603;28;20038;-57
2020/12/07 05:45:31;;;;;;;6.15;4.05;;;5.50;92.70;;;;;;4989929;28;20041;-56
2020/12/07 05:47:56;;;;;;;6.50;5.00;;;5.50;92.70;;;;;;4996496;28;20053;-56
2020/12/07 05:50:22;;;;;;;7.13;4.18;;;5.50;92.70;;;;;;4989523;28;20038;-58
2020/12/07 05:53:00;;;;;;;8.50;4.75;;;5.60;92.70;;;;;;4990847;28;20040;-56
2020/12/07 05:55:25;;;;;;;5.70;4.97;;;5.50;92.70;;;;;;5003805;28;20030;-56
2020/12/07 05:58:04;;;;;;;8.30;4.60;;;5.50;92.70;;;;;;4998203;28;20037;-57
2020/12/07 06:00:34;;;;;;;6.35;4.53;;;5.50;92.70;;;;;;5010376;28;20130;-56
2020/12/07 06:03:01;;;;;;;5.95;4.63;;;5.60;92.70;;;;;;5024602;28;20097;-56
2020/12/07 06:05:26;;;;;;;8.57;4.93;;;5.50;92.60;;;;;;4993071;28;20022;-56
2020/12/07 06:08:12;;;;;;;8.85;4.85;;;5.60;92.60;;;;;;5008638;28;20123;-57
2020/12/07 06:10:42;;;;;;;;;;;5.60;92.60;;;;;;5024892;28;20114;-56
2020/12/07 06:13:14;;;;;;;5.45;4.63;;;5.60;92.60;;;;;;5010327;28;19914;-57
2020/12/07 06:15:59;;;;;;;8.15;5.20;;;5.60;92.50;;;;;;4999095;28;20032;-57
2020/12/07 06:18:32;;;;;;;8.30;5.03;;;5.60;92.60;;;;;;5008307;28;20144;-58
2020/12/07 06:21:00;;;;;;;10.90;5.70;;;5.60;92.60;;;;;;5008632;28;20128;-56
2020/12/07 06:23:41;;;;;;;7.57;5.10;;;5.50;92.60;;;;;;5010147;28;20127;-57
2020/12/07 06:26:08;;;;;;;7.13;5.53;;;5.50;92.60;;;;;;4994727;28;20397;-58
2020/12/07 06:28:35;;;;;;;9.00;5.10;;;5.50;92.70;;;;;;4996674;28;20029;-56
2020/12/07 06:31:08;;;;;;;8.65;5.85;;;5.50;92.70;;;;;;5004489;28;20023;-56
2020/12/07 06:33:38;;;;;;;6.07;5.43;;;5.50;92.70;;;;;;5023553;28;20029;-58
2020/12/07 06:36:03;;;;;;;9.15;5.78;;;5.50;92.70;;;;;;5008470;28;20075;-56
2020/12/07 06:38:38;;;;;;;9.63;5.80;;;5.50;92.70;;;;;;5013792;28;20046;-57
2020/12/07 06:41:04;;;;;;;7.22;5.68;;;5.60;92.70;;;;;;5008232;28;20045;-58
2020/12/07 06:43:30;;;;;;;15.32;6.47;;;5.50;92.70;;;;;;5011014;28;20089;-57
2020/12/07 06:45:55;;;;;;;13.82;6.32;;;5.50;92.70;;;;;;4969043;28;20541;-57
2020/12/07 06:48:23;;;;;;;12.90;6.15;;;5.50;92.70;;;;;;5007211;28;20053;-57
2020/12/07 06:50:50;;;;;;;13.00;5.90;;;5.50;92.70;;;;;;5006610;28;20121;-56
2020/12/07 06:53:47;;;;;;;9.02;5.97;;;5.50;92.70;;;;;;4991211;28;20029;-57
2020/12/07 06:56:10;;;;;;;14.10;6.50;;;5.50;92.70;;;;;;5007954;28;20030;-57
2020/12/07 06:58:39;;;;;;;11.35;6.47;;;5.50;92.70;;;;;;4995072;28;20033;-56
2020/12/07 07:01:09;;;;;;;18.15;7.80;;;5.50;92.70;;;;;;4988554;28;20038;-56
2020/12/07 07:03:35;;;;;;;11.13;6.65;;;5.50;92.80;;;;;;5005484;28;20065;-57
2020/12/07 07:06:08;;;;;;;17.50;7.15;;;5.60;92.80;;;;;;5009794;28;20022;-57
2020/12/07 07:08:36;;;;;;;8.88;6.68;;;5.60;92.70;;;;;;5009185;28;20030;-58
2020/12/07 07:11:03;;;;;;;10.73;6.35;;;5.60;92.70;;;;;;5001540;28;20470;-57
2020/12/07 07:13:29;;;;;;;7.25;6.40;;;5.60;92.70;;;;;;5019632;28;20044;-57
2020/12/07 07:15:55;;;;;;;13.18;7.20;;;5.60;92.70;;;;;;5003277;28;20046;-57
2020/12/07 07:18:20;;;;;;;16.58;6.22;;;5.60;92.80;;;;;;5010087;28;20036;-57
2020/12/07 07:20:46;;;;;;;9.35;6.68;;;5.50;92.70;;;;;;5009306;28;20022;-57
2020/12/07 07:23:11;;;;;;;9.43;6.40;;;5.60;92.60;;;;;;5010627;28;20548;-56
2020/12/07 07:25:52;;;;;;;13.40;6.93;;;5.50;92.90;;;;;;5006558;28;20073;-57
2020/12/07 07:28:17;;;;;;;10.70;6.65;;;5.50;92.60;;;;;;5007434;28;20034;-57
2020/12/07 07:30:43;;;;;;;9.65;6.00;;;5.50;92.60;;;;;;5007986;28;20037;-57
2020/12/07 07:33:08;;;;;;;14.73;6.53;;;5.50;92.80;;;;;;5018589;28;20036;-57
2020/12/07 07:35:34;;;;;;;15.85;7.65;;;5.50;92.70;;;;;;5007843;28;20111;-58
2020/12/07 07:38:00;;;;;;;9.68;6.28;;;5.60;92.70;;;;;;5001886;28;20053;-57
2020/12/07 07:40:29;;;;;;;14.18;6.78;;;5.50;92.70;;;;;;5005826;28;20135;-57
2020/12/07 07:43:02;;;;;;;27.27;7.40;;;5.50;92.70;;;;;;5002493;28;20026;-56
2020/12/07 07:45:32;;;;;;;28.92;7.38;;;5.50;92.70;;;;;;5004977;28;20030;-56
2020/12/07 07:48:05;;;;;;;17.02;6.60;;;5.60;92.80;;;;;;5022702;28;20045;-58
2020/12/07 08:01:56;;;;;;;17.15;7.38;;;5.60;92.70;;;;;;5008189;28;20034;-57
2020/12/07 08:17:55;;;;;;;15.38;6.97;;;5.60;92.80;;;;;;5014017;28;20318;-56
2020/12/07 08:20:24;;;;;;;16.92;7.30;;;5.60;92.80;;;;;;4996482;28;20498;-57
2020/12/07 08:23:00;;;;;;;23.35;6.80;;;5.60;92.80;;;;;;5002722;28;20026;-57
2020/12/07 08:25:45;;;;;;;21.23;6.47;;;5.50;92.90;;;;;;5006378;28;20113;-55
2020/12/07 08:28:26;;;;;;;19.58;7.80;;;5.60;92.90;;;;;;5005413;28;20425;-57
2020/12/07 08:30:57;;;;;;;25.70;7.90;;;5.60;92.90;;;;;;4991222;28;20033;-56
2020/12/07 08:33:23;;;;;;;12.80;7.03;;;5.60;92.90;;;;;;5003222;28;20038;-56
2020/12/07 08:35:49;;;;;;;18.52;7.80;;;5.60;92.90;;;;;;5008444;28;20030;-56
2020/12/07 08:38:33;;;;;;;22.95;7.40;;;5.60;92.90;;;;;;5000314;28;20354;-56
2020/12/07 08:41:19;;;;;;;15.23;7.85;;;5.60;93.20;;;;;;5000984;28;20026;-57
2020/12/07 08:43:47;;;;;;;27.45;7.32;;;5.60;92.90;;;;;;4986993;28;20030;-57
2020/12/07 08:46:15;;;;;;;14.10;7.10;;;5.60;92.80;;;;;;4999228;28;20421;-58
2020/12/07 08:48:41;;;;;;;28.83;9.27;;;5.60;92.90;;;;;;4998843;28;20065;-57
2020/12/07 08:51:07;;;;;;;28.75;7.97;;;5.60;92.90;;;;;;5005500;28;20109;-57
2020/12/07 08:53:32;;;;;;;23.23;8.13;;;5.70;92.90;;;;;;5005258;28;20017;-56
2020/12/07 08:55:58;;;;;;;32.38;8.68;;;5.70;93.00;;;;;;5020996;28;20298;-56
2020/12/07 08:58:24;;;;;;;36.00;9.30;;;5.70;92.90;;;;;;5004603;28;20729;-57
2020/12/07 09:00:50;;;;;;;51.88;10.10;;;5.70;92.90;;;;;;5003443;28;20053;-56
2020/12/07 09:03:15;;;;;;;29.10;9.32;;;5.70;92.90;;;;;;5004083;28;20152;-57
2020/12/07 09:05:41;;;;;;;35.35;9.82;;;5.70;93.00;;;;;;5001365;28;20034;-58
2020/12/07 09:08:07;;;;;;;34.38;8.90;;;5.70;92.90;;;;;;4986924;28;20041;-57
2020/12/07 09:10:33;;;;;;;31.08;8.93;;;5.70;92.90;;;;;;4983318;28;20033;-57
2020/12/07 09:12:59;;;;;;;43.67;9.15;;;5.70;93.00;;;;;;4999547;28;20076;-57
2020/12/07 09:15:24;;;;;;;19.20;8.43;;;5.70;93.00;;;;;;5005286;28;20034;-56
2020/12/07 09:17:50;;;;;;;25.25;9.50;;;5.70;92.90;;;;;;5020704;28;20026;-57
2020/12/07 09:20:15;;;;;;;38.47;10.27;;;5.80;93.00;;;;;;5006225;28;20033;-57
2020/12/07 09:22:41;;;;;;;33.83;9.93;;;5.80;93.00;;;;;;5000872;28;20064;-57
2020/12/07 09:25:06;;;;;;;41.78;9.98;;;5.90;93.00;;;;;;4989242;28;20548;-56
2020/12/07 09:27:32;;;;;;;52.08;10.60;;;5.80;92.90;;;;;;5001170;28;20025;-57
2020/12/07 09:29:57;;;;;;;38.95;9.57;;;5.80;93.00;;;;;;4971592;28;20108;-57
2020/12/07 09:32:23;;;;;;;42.00;10.30;;;5.80;93.10;;;;;;5007199;28;20071;-58
2020/12/07 09:34:48;;;;;;;38.58;10.90;;;5.80;93.00;;;;;;4985435;28;20037;-57
2020/12/07 09:37:14;;;;;;;37.60;10.50;;;5.80;93.00;;;;;;5008808;28;20110;-56
2020/12/07 09:39:40;;;;;;;51.47;11.05;;;5.90;93.00;;;;;;5001561;28;20038;-56
2020/12/07 09:42:05;;;;;;;33.67;10.50;;;5.70;92.90;;;;;;5004215;28;20054;-57
2020/12/07 09:44:31;;;;;;;54.80;13.02;;;5.90;92.90;;;;;;5010872;28;20022;-56
2020/12/07 09:46:56;;;;;;;57.33;12.63;;;5.90;92.90;;;;;;5003154;28;20660;-57
2020/12/07 09:49:22;;;;;;;54.03;13.23;;;5.90;92.90;;;;;;5002995;28;20026;-56
2020/12/07 09:51:47;;;;;;;56.75;12.52;;;5.90;92.90;;;;;;5017841;28;20409;-58
2020/12/07 09:54:14;;;;;;;42.03;12.18;;;5.90;93.00;;;;;;5020485;28;20026;-56
2020/12/07 09:56:39;;;;;;;36.78;11.95;;;5.90;92.90;;;;;;5019283;28;20044;-56
2020/12/07 09:59:05;;;;;;;55.97;11.95;;;5.90;92.90;;;;;;5004137;28;20026;-57
2020/12/07 10:01:30;;;;;;;41.88;12.00;;;5.90;92.90;;;;;;5004661;28;20121;-56
2020/12/07 10:03:56;;;;;;;48.80;13.52;;;5.90;93.00;;;;;;5000501;28;20045;-56
2020/12/07 10:06:21;;;;;;;31.30;12.30;;;5.90;92.90;;;;;;5020369;28;20042;-57
2020/12/07 10:08:47;;;;;;;31.63;12.50;;;6.00;92.90;;;;;;4997597;28;20030;-56
2020/12/07 10:11:13;;;;;;;36.50;11.70;;;6.00;92.80;;;;;;5005646;28;20701;-56
2020/12/07 10:13:39;;;;;;;38.38;12.55;;;6.00;92.80;;;;;;5000797;28;20425;-56
2020/12/07 10:16:04;;;;;;;38.83;12.60;;;6.00;92.80;;;;;;5000980;28;20569;-56
2020/12/07 10:18:30;;;;;;;34.63;11.95;;;6.00;93.00;;;;;;4998010;28;20062;-56
2020/12/07 10:20:55;;;;;;;37.42;12.13;;;6.00;93.00;;;;;;5003287;28;20057;-56
2020/12/07 10:23:22;;;;;;;35.30;12.27;;;6.00;92.90;;;;;;4998938;28;20057;-57
2020/12/07 10:25:51;;;;;;;35.30;12.48;;;6.00;92.90;;;;;;5002102;28;20029;-56
2020/12/07 10:28:16;;;;;;;39.33;13.07;;;6.00;93.00;;;;;;4969060;28;20050;-57
2020/12/07 10:30:42;;;;;;;36.75;11.82;;;6.00;93.10;;;;;;5004029;28;20536;-56
2020/12/07 10:33:07;;;;;;;39.47;12.15;;;6.10;92.90;;;;;;5001409;28;20034;-56
2020/12/07 10:35:33;;;;;;;36.30;11.55;;;6.10;92.90;;;;;;5003580;28;20022;-57
2020/12/07 10:37:58;;;;;;;29.55;11.10;;;6.10;92.90;;;;;;5007672;28;20145;-56
2020/12/07 10:40:24;;;;;;;27.70;11.32;;;6.10;92.90;;;;;;5005841;28;20036;-56
2020/12/07 10:42:49;;;;;;;37.42;11.20;;;6.10;92.80;;;;;;5019594;28;20030;-56
2020/12/07 10:45:15;;;;;;;37.60;10.82;;;6.10;92.80;;;;;;5017607;28;20046;-56
2020/12/07 10:47:40;;;;;;;36.38;12.30;;;6.10;92.80;;;;;;4976939;28;20033;-56
2020/12/07 10:50:06;;;;;;;36.35;11.90;;;6.10;93.10;;;;;;5004415;28;20061;-57
2020/12/07 10:52:31;;;;;;;40.63;10.85;;;6.10;93.10;;;;;;5022862;28;20030;-56
2020/12/07 10:54:57;;;;;;;35.78;11.65;;;6.10;93.10;;;;;;5007724;28;20034;-55
2020/12/07 10:57:23;;;;;;;27.83;11.13;;;6.20;93.10;;;;;;4992727;28;20038;-56
2020/12/07 10:59:48;;;;;;;34.53;11.10;;;5.80;92.80;;;;;;5004165;28;20485;-56
2020/12/07 11:02:14;;;;;;;51.50;11.27;;;6.20;92.80;;;;;;4991291;28;20054;-56
2020/12/07 11:04:39;;;;;;;33.60;10.18;;;6.20;93.00;;;;;;5009866;28;20110;-56
2020/12/07 11:07:10;;;;;;;58.10;11.38;;;6.30;93.00;;;;;;5024014;28;20052;-56
2020/12/07 11:09:36;;;;;;;32.67;9.95;;;6.20;93.00;;;;;;5007977;28;20105;-57
2020/12/07 11:12:04;;;;;;;37.63;10.80;;;6.30;93.00;;;;;;5008543;28;20569;-57
2020/12/07 11:14:30;;;;;;;27.10;9.65;;;6.30;92.90;;;;;;5007669;28;20030;-56
2020/12/07 11:16:58;;;;;;;42.10;12.02;;;6.30;92.90;;;;;;5007514;28;20084;-57
2020/12/07 11:19:23;;;;;;;40.63;11.13;;;6.30;93.00;;;;;;5003093;28;20091;-57
2020/12/07 11:21:49;;;;;;;39.00;11.45;;;6.30;93.00;;;;;;5013773;28;20030;-56
2020/12/07 11:24:14;;;;;;;37.97;10.95;;;6.40;93.00;;;;;;5007510;28;20285;-55
2020/12/07 11:26:40;;;;;;;36.80;11.10;;;6.40;92.90;;;;;;5014917;28;20065;-55
2020/12/07 11:29:05;;;;;;;40.50;11.00;;;6.40;93.00;;;;;;4993979;28;20412;-57
2020/12/07 11:31:31;;;;;;;47.58;10.10;;;6.40;93.00;;;;;;5007889;28;20116;-56
2020/12/07 11:33:56;;;;;;;36.42;10.65;;;6.40;92.90;;;;;;4989129;28;20037;-56
2020/12/07 11:36:22;;;;;;;38.67;11.48;;;6.40;92.90;;;;;;5021984;28;20044;-56
2020/12/07 11:46:35;;;;;;;49.78;12.07;;;6.50;93.00;;;;;;5007064;28;20032;-56
2020/12/07 11:49:01;;;;;;;57.58;10.95;;;6.60;93.00;;;;;;5020711;28;20503;-56
2020/12/07 11:51:26;;;;;;;41.08;11.20;;;6.60;93.00;;;;;;5007635;28;20512;-56
2020/12/07 11:53:54;;;;;;;41.72;10.75;;;6.60;93.00;;;;;;4974932;28;20516;-56
2020/12/07 11:56:33;;;;;;;37.83;11.05;;;6.60;93.10;;;;;;5008929;28;20136;-55
2020/12/07 11:58:59;;;;;;;52.00;12.15;;;6.70;93.00;;;;;;5009447;28;20034;-56
2020/12/07 12:01:24;;;;;;;26.40;10.82;;;6.70;93.00;;;;;;5000643;28;20030;-56
2020/12/07 12:03:50;;;;;;;34.65;11.20;;;6.70;93.10;;;;;;5019445;28;20046;-57
2020/12/07 12:06:20;;;;;;;39.60;12.18;;;6.70;93.00;;;;;;4986196;28;20032;-56
2020/12/07 12:08:46;;;;;;;35.78;11.00;;;6.70;93.00;;;;;;5003064;28;20045;-56
2020/12/07 12:11:11;;;;;;;33.28;11.73;;;6.70;93.10;;;;;;5002073;28;20037;-56
2020/12/07 12:13:37;;;;;;;35.38;11.88;;;6.70;93.10;;;;;;5003838;28;20060;-55
2020/12/07 12:16:02;;;;;;;41.10;12.15;;;6.70;93.00;;;;;;5003254;28;20108;-56
2020/12/07 12:18:29;;;;;;;33.85;11.95;;;6.70;93.00;;;;;;5002381;28;20528;-56
2020/12/07 12:20:55;;;;;;;37.80;12.07;;;6.70;93.10;;;;;;4990019;28;20432;-56
2020/12/07 12:23:20;;;;;;;54.70;13.52;;;6.80;93.20;;;;;;5002552;28;20030;-56
2020/12/07 12:25:46;;;;;;;37.92;13.13;;;6.70;93.20;;;;;;5004335;28;20053;-56
2020/12/07 12:28:11;;;;;;;43.45;11.43;;;6.80;93.60;;;;;;4996410;28;20037;-56
2020/12/07 12:30:38;;;;;;;52.90;13.55;;;6.80;93.30;;;;;;5004688;28;20449;-55
2020/12/07 12:33:04;;;;;;;38.45;13.63;;;6.80;93.30;;;;;;5003414;28;20069;-56
2020/12/07 12:35:30;;;;;;;35.50;11.93;;;6.80;93.30;;;;;;5007228;28;20050;-56
2020/12/07 12:37:55;;;;;;;40.70;12.25;;;6.80;93.20;;;;;;5019053;28;20486;-56
2020/12/07 12:40:21;;;;;;;34.53;11.60;;;6.80;93.10;;;;;;5005447;28;20136;-56
2020/12/07 12:42:46;;;;;;;25.88;9.88;;;6.80;93.10;;;;;;5029187;28;20046;-57
2020/12/07 12:45:12;;;;;;;39.53;11.38;;;6.80;92.90;;;;;;5014455;28;20038;-56
2020/12/07 12:47:37;;;;;;;45.65;10.32;;;6.90;92.90;;;;;;5010538;28;20086;-56
2020/12/07 12:50:03;;;;;;;28.60;10.40;;;6.90;93.00;;;;;;5010231;28;20116;-57
2020/12/07 12:52:28;;;;;;;20.20;11.13;;;6.90;92.90;;;;;;5008995;28;20040;-56
2020/12/07 12:54:54;;;;;;;35.75;11.30;;;6.90;92.90;;;;;;5020826;28;20068;-56
2020/12/07 12:57:19;;;;;;;26.25;10.93;;;6.90;92.90;;;;;;5019020;28;20034;-56
2020/12/07 12:59:45;;;;;;;25.13;9.98;;;6.90;92.70;;;;;;5020355;28;20054;-56
2020/12/07 13:02:10;;;;;;;33.33;10.40;;;6.90;92.60;;;;;;5020325;28;20632;-56
2020/12/07 13:04:36;;;;;;;25.55;9.18;;;6.90;92.60;;;;;;5004504;28;20032;-56
2020/12/07 13:07:01;;;;;;;32.60;10.50;;;7.00;92.60;;;;;;5005906;28;20140;-56
2020/12/07 13:09:27;;;;;;;32.45;9.80;;;7.00;92.60;;;;;;5004769;28;20044;-56
2020/12/07 13:11:52;;;;;;;22.40;9.38;;;7.00;92.60;;;;;;4989348;28;20064;-56
2020/12/07 13:14:18;;;;;;;34.10;10.48;;;7.00;92.70;;;;;;5010124;28;20076;-57
2020/12/07 13:17:02;;;;;;;29.15;9.05;;;7.00;92.60;;;;;;5005177;28;20085;-55